createdAt,value
2023-04-01T00:00:32.721Z,70.48
2023-04-01T00:03:01.299Z,70.28
2023-04-01T00:05:29.036Z,70.38
2023-04-01T00:07:56.780Z,70.58
2023-04-01T00:10:26.180Z,70.62
2023-04-01T00:12:54.271Z,70.97
2023-04-01T00:15:22.557Z,70.53
2023-04-01T00:17:50.578Z,70.65
2023-04-01T00:20:18.558Z,70.67
2023-04-01T00:22:46.196Z,70.76
2023-04-01T00:25:14.030Z,70.41
2023-04-01T00:27:44.072Z,70.30
2023-04-01T00:30:12.743Z,70.27
2023-04-01T00:32:40.609Z,70.49
2023-04-01T00:35:09.838Z,70.12
2023-04-01T00:37:38.744Z,70.39
2023-04-01T00:40:09.659Z,70.17
2023-04-01T00:42:37.434Z,70.46
2023-04-01T00:45:27.810Z,70.45
2023-04-01T00:47:55.915Z,70.53
2023-04-01T00:50:26.946Z,70.48
2023-04-01T00:52:55.031Z,70.49
2023-04-01T00:55:25.305Z,70.71
2023-04-01T00:57:55.362Z,70.50
2023-04-01T01:00:23.263Z,70.77
2023-04-01T01:02:53.189Z,70.57
2023-04-01T01:05:27.985Z,70.52
2023-04-01T01:08:05.327Z,70.07
2023-04-01T01:10:35.603Z,70.07
2023-04-01T01:13:10.708Z,70.16
2023-04-01T01:15:48.222Z,70.31
2023-04-01T01:18:24.422Z,69.83
2023-04-01T01:21:52.324Z,70.10
2023-04-01T01:24:42.429Z,69.79
2023-04-01T01:27:11.814Z,69.77
2023-04-01T01:30:18.366Z,69.59
2023-04-01T01:33:22.505Z,69.97
2023-04-01T01:35:55.491Z,70.51
2023-04-01T01:38:26.681Z,70.32
2023-04-01T01:40:58.692Z,71.06
2023-04-01T01:43:32.496Z,72.30
2023-04-01T01:46:04.040Z,73.06
2023-04-01T01:48:33.389Z,73.75
2023-04-01T01:51:02.983Z,74.42
2023-04-01T01:53:30.705Z,74.06
2023-04-01T01:55:58.403Z,75.23
2023-04-01T01:58:30.900Z,75.90
2023-04-01T02:01:02.324Z,76.27
2023-04-01T02:03:33.628Z,76.19
2023-04-01T02:06:05.034Z,76.59
2023-04-01T02:08:37.504Z,77.55
2023-04-01T02:11:09.692Z,77.66
2023-04-01T02:13:44.718Z,78.35
2023-04-01T02:16:17.243Z,77.87
2023-04-01T02:18:48.739Z,78.23
2023-04-01T02:21:20.352Z,78.03
2023-04-01T02:23:49.391Z,77.54
2023-04-01T02:26:18.142Z,78.52
2023-04-01T02:28:48.649Z,77.15
2023-04-01T02:31:17.149Z,77.36
2023-04-01T02:33:45.088Z,77.54
2023-04-01T02:36:15.232Z,76.43
2023-04-01T02:38:46.379Z,76.08
2023-04-01T02:41:14.223Z,76.03
2023-04-01T02:43:41.841Z,75.81
2023-04-01T02:46:09.704Z,76.07
2023-04-01T02:48:37.300Z,75.94
2023-04-01T02:51:05.438Z,75.80
2023-04-01T02:53:33.077Z,75.84
2023-04-01T02:56:02.113Z,76.47
2023-04-01T02:58:29.759Z,76.69
2023-04-01T03:00:57.602Z,76.66
2023-04-01T03:03:25.320Z,76.29
2023-04-01T03:05:54.903Z,75.90
2023-04-01T03:08:22.577Z,76.04
2023-04-01T03:10:50.245Z,75.29
2023-04-01T03:13:19.252Z,75.74
2023-04-01T03:15:46.930Z,75.24
2023-04-01T03:18:14.613Z,75.33
2023-04-01T03:20:42.262Z,75.31
2023-04-01T03:23:10.272Z,75.82
2023-04-01T03:25:37.924Z,75.13
2023-04-01T03:28:05.762Z,75.64
2023-04-01T03:30:34.745Z,76.04
2023-04-01T03:33:03.754Z,75.55
2023-04-01T03:35:31.644Z,75.35
2023-04-01T03:37:59.529Z,74.88
2023-04-01T03:40:28.394Z,75.21
2023-04-01T03:42:57.142Z,75.38
2023-04-01T03:45:24.949Z,75.68
2023-04-01T03:47:53.940Z,75.73
2023-04-01T03:50:21.554Z,75.88
2023-04-01T03:52:49.294Z,76.54
2023-04-01T03:55:19.027Z,76.53
2023-04-01T03:57:46.685Z,76.50
2023-04-01T04:00:14.838Z,76.48
2023-04-01T04:02:42.656Z,75.82
2023-04-01T04:05:11.888Z,75.72
2023-04-01T04:07:39.804Z,76.02
2023-04-01T04:10:08.872Z,76.01
2023-04-01T04:12:36.461Z,76.30
2023-04-01T04:15:04.330Z,75.95
2023-04-01T04:17:31.999Z,76.11
2023-04-01T04:19:59.603Z,75.57
2023-04-01T04:22:28.756Z,75.38
2023-04-01T04:24:56.456Z,75.08
2023-04-01T04:27:24.131Z,75.06
2023-04-01T04:29:51.880Z,75.48
2023-04-01T04:32:19.505Z,76.09
2023-04-01T04:34:47.153Z,75.32
2023-04-01T04:37:14.764Z,75.39
2023-04-01T04:39:43.692Z,75.72
2023-04-01T04:42:11.291Z,76.26
2023-04-01T04:44:38.995Z,76.04
2023-04-01T04:47:06.712Z,76.50
2023-04-01T04:49:34.352Z,76.69
2023-04-01T04:52:01.990Z,77.28
2023-04-01T04:54:29.613Z,77.59
2023-04-01T04:56:58.688Z,78.17
2023-04-01T04:59:27.125Z,78.60
2023-04-01T05:01:54.772Z,78.76
2023-04-01T05:04:22.409Z,79.03
2023-04-01T05:06:50.051Z,79.23
2023-04-01T05:09:17.737Z,79.66
2023-04-01T05:11:45.833Z,79.25
2023-04-01T05:14:16.423Z,78.88
2023-04-01T05:16:44.160Z,79.52
2023-04-01T05:19:12.049Z,79.07
2023-04-01T05:21:39.724Z,79.20
2023-04-01T05:24:10.318Z,79.35
2023-04-01T05:26:38.639Z,79.91
2023-04-01T05:29:06.713Z,79.64
2023-04-01T05:31:35.772Z,79.54
2023-04-01T05:34:03.478Z,79.55
2023-04-01T05:36:31.183Z,79.25
2023-04-01T05:38:58.967Z,78.82
2023-04-01T05:41:26.623Z,78.50
2023-04-01T05:43:54.216Z,78.49
2023-04-01T05:46:22.295Z,78.30
2023-04-01T05:48:51.337Z,78.45
2023-04-01T05:51:19.240Z,78.17
2023-04-01T05:53:46.970Z,77.75
2023-04-01T05:56:14.646Z,77.91
2023-04-01T05:58:42.305Z,77.95
2023-04-01T06:01:15.864Z,77.86
2023-04-01T06:03:44.459Z,77.15
2023-04-01T06:06:16.690Z,77.40
2023-04-01T06:08:45.304Z,77.39
2023-04-01T06:11:25.107Z,77.20
2023-04-01T06:14:11.271Z,77.63
2023-04-01T06:16:58.173Z,77.81
2023-04-01T06:19:35.885Z,78.18
2023-04-01T06:22:30.078Z,78.52
2023-04-01T06:25:18.640Z,78.08
2023-04-01T06:28:02.524Z,78.64
2023-04-01T06:30:42.069Z,77.99
2023-04-01T06:33:44.865Z,78.32
2023-04-01T06:36:49.524Z,78.46
2023-04-01T06:39:35.393Z,79.16
2023-04-01T06:42:15.469Z,79.59
2023-04-01T06:44:56.268Z,79.88
2023-04-01T06:47:37.660Z,80.42
2023-04-01T06:50:17.865Z,80.92
2023-04-01T06:52:53.703Z,81.18
2023-04-01T06:55:34.470Z,81.55
2023-04-01T06:58:06.562Z,80.92
2023-04-01T07:00:39.018Z,81.47
2023-04-01T07:03:20.453Z,82.60
2023-04-01T07:05:48.428Z,82.49
2023-04-01T07:08:22.368Z,81.06
2023-04-01T07:10:55.675Z,80.92
2023-04-01T07:13:30.399Z,81.72
2023-04-01T07:16:05.116Z,81.09
2023-04-01T07:18:39.127Z,81.23
2023-04-01T07:21:12.334Z,80.88
2023-04-01T07:23:44.397Z,81.16
2023-04-01T07:26:21.661Z,80.48
2023-04-01T07:28:50.960Z,79.71
2023-04-01T07:31:28.885Z,79.95
2023-04-01T07:34:05.424Z,79.65
2023-04-01T07:36:41.075Z,79.99
2023-04-01T07:39:20.828Z,79.98
2023-04-01T07:41:58.755Z,79.47
2023-04-01T07:44:35.230Z,80.40
2023-04-01T07:47:13.304Z,80.85
2023-04-01T07:49:54.830Z,80.94
2023-04-01T07:52:29.188Z,80.99
2023-04-01T07:55:04.328Z,80.81
2023-04-01T07:57:44.930Z,80.48
2023-04-01T08:00:20.984Z,80.87
2023-04-01T08:03:08.237Z,80.80
2023-04-01T08:05:43.442Z,80.69
2023-04-01T08:08:20.963Z,80.72
2023-04-01T08:10:53.414Z,80.86
2023-04-01T08:13:33.672Z,81.23
2023-04-01T08:16:11.722Z,81.93
2023-04-01T08:18:48.035Z,81.94
2023-04-01T08:21:22.453Z,81.16
2023-04-01T08:23:53.781Z,82.20
2023-04-01T08:26:28.142Z,81.90
2023-04-01T08:29:03.872Z,82.30
2023-04-01T08:31:35.399Z,82.23
2023-04-01T08:34:06.893Z,82.00
2023-04-01T08:36:38.272Z,82.27
2023-04-01T08:39:11.728Z,82.26
2023-04-01T08:42:21.374Z,82.53
2023-04-01T08:45:09.528Z,82.04
2023-04-01T08:47:51.459Z,81.62
2023-04-01T08:50:33.685Z,81.63
2023-04-01T08:53:08.964Z,81.72
2023-04-01T08:55:48.949Z,81.14
2023-04-01T08:58:48.732Z,81.44
2023-04-01T09:01:35.475Z,80.46
2023-04-01T09:04:25.163Z,80.93
2023-04-01T09:07:06.120Z,80.49
2023-04-01T09:10:03.008Z,80.52
2023-04-01T09:13:01.955Z,80.34
2023-04-01T09:15:47.107Z,80.08
2023-04-01T09:18:26.339Z,79.87
2023-04-01T09:21:19.288Z,79.38
2023-04-01T09:23:59.130Z,79.78
2023-04-01T09:27:06.127Z,78.79
2023-04-01T09:29:55.253Z,78.87
2023-04-01T09:32:47.052Z,78.35
2023-04-01T09:35:31.979Z,77.72
2023-04-01T09:38:13.805Z,78.30
2023-04-01T09:40:51.621Z,76.88
2023-04-01T09:43:27.375Z,77.51
2023-04-01T09:46:06.260Z,77.13
2023-04-01T09:48:49.380Z,76.78
2023-04-01T09:51:28.353Z,77.13
2023-04-01T09:54:09.500Z,77.15
2023-04-01T09:57:13.230Z,77.32
2023-04-01T10:00:10.411Z,77.58
2023-04-01T10:03:22.980Z,77.40
2023-04-01T10:06:23.377Z,78.04
2023-04-01T10:09:25.834Z,77.16
2023-04-01T10:12:23.224Z,76.84
2023-04-01T10:15:30.794Z,77.06
2023-04-01T10:18:31.960Z,76.56
2023-04-01T10:21:19.874Z,75.85
2023-04-01T10:24:07.883Z,75.70
2023-04-01T10:27:12.487Z,74.83
2023-04-01T10:30:07.159Z,75.85
2023-04-01T10:33:16.299Z,75.51
2023-04-01T10:36:20.813Z,75.74
2023-04-01T10:39:19.335Z,75.39
2023-04-01T10:42:08.147Z,74.76
2023-04-01T10:45:02.049Z,74.81
2023-04-01T10:47:52.370Z,75.98
2023-04-01T10:51:01.377Z,74.14
2023-04-01T10:53:40.385Z,75.21
2023-04-01T10:56:40.785Z,75.38
2023-04-01T10:59:38.017Z,73.93
2023-04-01T11:02:42.933Z,73.90
2023-04-01T11:05:50.138Z,73.18
2023-04-01T11:08:53.434Z,72.36
2023-04-01T11:11:54.707Z,71.26
2023-04-01T11:14:48.736Z,71.87
2023-04-01T11:17:58.672Z,72.01
2023-04-01T11:20:57.733Z,72.15
2023-04-01T11:23:39.731Z,70.53
2023-04-01T11:26:11.638Z,69.53
2023-04-01T11:28:57.753Z,68.27
2023-04-01T11:31:48.104Z,68.10
2023-04-01T11:34:34.336Z,68.11
2023-04-01T11:37:13.147Z,68.24
2023-04-01T11:39:52.781Z,68.68
2023-04-01T11:42:32.767Z,68.42
2023-04-01T11:45:14.430Z,68.28
2023-04-01T11:48:00.839Z,68.68
2023-04-01T11:50:41.307Z,68.96
2023-04-01T11:53:31.596Z,68.98
2023-04-01T11:56:11.475Z,68.35
2023-04-01T11:59:14.884Z,67.75
2023-04-01T12:01:52.112Z,67.37
2023-04-01T12:04:49.353Z,67.72
2023-04-01T12:07:29.507Z,69.28
2023-04-01T12:10:05.245Z,67.59
2023-04-01T12:12:54.201Z,67.62
2023-04-01T12:15:32.582Z,67.79
2023-04-01T12:18:05.720Z,68.62
2023-04-01T12:20:47.799Z,67.83
2023-04-01T12:23:30.692Z,67.57
2023-04-01T12:26:29.878Z,66.99
2023-04-01T12:29:15.370Z,65.59
2023-04-01T12:31:54.978Z,65.90
2023-04-01T12:34:45.682Z,65.20
2023-04-01T12:37:23.096Z,65.64
2023-04-01T12:40:04.393Z,63.92
2023-04-01T12:42:48.118Z,64.65
2023-04-01T12:45:31.689Z,66.56
2023-04-01T12:48:34.960Z,67.89
2023-04-01T12:51:21.768Z,68.77
2023-04-01T12:54:11.713Z,67.16
2023-04-01T12:56:50.051Z,66.55
2023-04-01T12:59:35.638Z,68.38
2023-04-01T13:02:09.721Z,68.80
2023-04-01T13:04:58.554Z,67.64
2023-04-01T13:07:47.944Z,67.77
2023-04-01T13:10:29.779Z,66.90
2023-04-01T13:13:28.872Z,65.71
2023-04-01T13:16:00.483Z,64.11
2023-04-01T13:18:41.544Z,62.73
2023-04-01T13:21:18.232Z,62.92
2023-04-01T13:23:56.296Z,61.82
2023-04-01T13:26:35.824Z,63.64
2023-04-01T13:29:09.829Z,64.04
2023-04-01T13:31:49.458Z,62.16
2023-04-01T13:34:33.094Z,63.43
2023-04-01T13:37:16.471Z,62.63
2023-04-01T13:39:58.878Z,61.70
2023-04-01T13:42:33.452Z,62.88
2023-04-01T13:45:04.497Z,61.61
2023-04-01T13:47:54.863Z,61.62
2023-04-01T13:50:39.985Z,63.22
2023-04-01T13:53:39.630Z,63.75
2023-04-01T13:56:18.647Z,64.88
2023-04-01T13:59:05.756Z,66.52
2023-04-01T14:01:42.739Z,66.64
2023-04-01T14:04:40.712Z,67.30
2023-04-01T14:07:25.048Z,65.82
2023-04-01T14:10:08.161Z,66.04
2023-04-01T14:12:44.208Z,66.17
2023-04-01T14:15:31.842Z,65.43
2023-04-01T14:18:16.075Z,65.08
2023-04-01T14:20:52.794Z,65.54
2023-04-01T14:23:43.453Z,65.46
2023-04-01T14:26:27.738Z,64.76
2023-04-01T14:29:04.808Z,66.04
2023-04-01T14:31:53.946Z,65.94
2023-04-01T14:34:31.673Z,66.27
2023-04-01T14:37:15.488Z,65.82
2023-04-01T14:40:02.260Z,66.45
2023-04-01T14:42:51.158Z,67.31
2023-04-01T14:45:43.887Z,66.57
2023-04-01T14:48:25.372Z,67.91
2023-04-01T14:50:56.550Z,66.77
2023-04-01T14:53:30.255Z,66.97
2023-04-01T14:55:59.642Z,66.35
2023-04-01T14:58:42.705Z,66.12
2023-04-01T15:01:26.151Z,65.78
2023-04-01T15:04:04.477Z,65.10
2023-04-01T15:06:47.732Z,65.52
2023-04-01T15:09:24.312Z,65.17
2023-04-01T15:12:01.554Z,65.78
2023-04-01T15:14:58.488Z,66.52
2023-04-01T15:17:50.928Z,66.45
2023-04-01T15:20:35.062Z,65.69
2023-04-01T15:23:15.871Z,66.00
2023-04-01T15:25:59.389Z,66.38
2023-04-01T15:28:34.090Z,66.21
2023-04-01T15:31:10.279Z,66.60
2023-04-01T15:33:55.005Z,65.78
2023-04-01T15:36:35.905Z,67.25
2023-04-01T15:39:16.274Z,68.41
2023-04-01T15:42:12.584Z,69.40
2023-04-01T15:44:55.084Z,68.94
2023-04-01T15:47:36.405Z,70.42
2023-04-01T15:50:33.411Z,71.76
2023-04-01T15:53:17.819Z,72.12
2023-04-01T15:55:51.977Z,71.93
2023-04-01T15:58:38.421Z,71.50
2023-04-01T16:01:18.094Z,70.69
2023-04-01T16:03:56.557Z,70.28
2023-04-01T16:06:47.238Z,68.97
2023-04-01T16:09:30.354Z,68.68
2023-04-01T16:12:06.356Z,69.00
2023-04-01T16:14:46.605Z,67.77
2023-04-01T16:17:33.107Z,68.03
2023-04-01T16:20:04.457Z,68.14
2023-04-01T16:22:36.828Z,67.84
2023-04-01T16:25:22.514Z,67.86
2023-04-01T16:27:58.579Z,67.61
2023-04-01T16:30:37.384Z,67.57
2023-04-01T16:33:13.668Z,67.69
2023-04-01T16:35:52.534Z,67.56
2023-04-01T16:38:26.487Z,67.54
2023-04-01T16:41:06.862Z,67.40
2023-04-01T16:43:43.197Z,67.29
2023-04-01T16:46:31.634Z,66.73
2023-04-01T16:49:15.894Z,66.46
2023-04-01T16:51:49.389Z,66.50
2023-04-01T16:54:29.253Z,67.10
2023-04-01T16:57:06.662Z,67.33
2023-04-01T16:59:39.000Z,67.23
2023-04-01T17:02:12.651Z,66.94
2023-04-01T17:04:45.502Z,67.14
2023-04-01T17:07:24.761Z,67.41
2023-04-01T17:10:35.375Z,67.55
2023-04-01T17:13:24.706Z,67.08
2023-04-01T17:16:03.626Z,67.70
2023-04-01T17:18:43.476Z,68.62
2023-04-01T17:21:18.944Z,67.90
2023-04-01T17:23:53.582Z,68.36
2023-04-01T17:26:34.834Z,68.41
2023-04-01T17:29:15.849Z,68.65
2023-04-01T17:31:48.897Z,68.86
2023-04-01T17:34:29.333Z,69.29
2023-04-01T17:37:16.047Z,69.14
2023-04-01T17:39:57.635Z,69.64
2023-04-01T17:42:38.213Z,70.35
2023-04-01T17:45:19.001Z,70.58
2023-04-01T17:48:00.563Z,70.77
2023-04-01T17:50:46.606Z,71.07
2023-04-01T17:53:26.517Z,71.66
2023-04-01T17:56:08.625Z,71.38
2023-04-01T17:58:46.303Z,71.31
2023-04-01T18:01:26.656Z,71.33
2023-04-01T18:04:04.779Z,71.34
2023-04-01T18:06:39.224Z,71.60
2023-04-01T18:09:19.168Z,71.77
2023-04-01T18:11:55.051Z,72.02
2023-04-01T18:14:42.274Z,72.19
2023-04-01T18:17:23.566Z,72.42
2023-04-01T18:20:04.376Z,72.36
2023-04-01T18:22:41.930Z,72.66
2023-04-01T18:25:21.482Z,72.58
2023-04-01T18:27:53.477Z,72.72
2023-04-01T18:30:28.124Z,72.94
2023-04-01T18:33:03.602Z,73.03
2023-04-01T18:35:46.738Z,73.20
2023-04-01T18:38:17.373Z,73.13
2023-04-01T18:40:50.969Z,73.17
2023-04-01T18:43:32.044Z,73.24
2023-04-01T18:46:03.914Z,73.40
2023-04-01T18:48:50.160Z,73.34
2023-04-01T18:51:22.753Z,73.52
2023-04-01T18:53:58.472Z,73.56
2023-04-01T18:56:31.434Z,73.77
2023-04-01T18:59:07.003Z,73.65
2023-04-01T19:01:42.583Z,73.62
2023-04-01T19:04:21.157Z,73.93
2023-04-01T19:06:52.783Z,74.26
2023-04-01T19:09:25.417Z,74.01
2023-04-01T19:12:21.994Z,74.38
2023-04-01T19:15:01.950Z,74.62
2023-04-01T19:17:47.243Z,74.56
2023-04-01T19:20:24.876Z,74.49
2023-04-01T19:23:20.035Z,74.54
2023-04-01T19:25:53.052Z,74.69
2023-04-01T19:28:35.770Z,75.08
2023-04-01T19:31:14.073Z,74.94
2023-04-01T19:33:54.684Z,75.37
2023-04-01T19:36:32.506Z,75.05
2023-04-01T19:39:14.516Z,75.09
2023-04-01T19:41:52.700Z,75.67
2023-04-01T19:44:32.775Z,75.74
2023-04-01T19:47:10.438Z,75.52
2023-04-01T19:49:55.233Z,75.62
2023-04-01T19:52:32.953Z,75.48
2023-04-01T19:55:08.439Z,75.46
2023-04-01T19:57:43.747Z,75.80
2023-04-01T20:00:23.577Z,75.36
2023-04-01T20:03:08.468Z,75.36
2023-04-01T20:05:48.490Z,75.13
2023-04-01T20:08:27.934Z,75.31
2023-04-01T20:11:08.011Z,75.87
2023-04-01T20:13:47.442Z,75.35
2023-04-01T20:16:16.727Z,75.18
2023-04-01T20:18:52.947Z,74.98
2023-04-01T20:21:33.954Z,74.71
2023-04-01T20:24:10.044Z,74.69
2023-04-01T20:26:42.100Z,74.63
2023-04-01T20:29:40.642Z,74.02
2023-04-01T20:32:21.239Z,73.89
2023-04-01T20:35:02.050Z,74.06
2023-04-01T20:37:39.747Z,74.81
2023-04-01T20:40:39.746Z,74.93
2023-04-01T20:43:27.127Z,75.37
2023-04-01T20:46:00.484Z,75.42
2023-04-01T20:48:46.689Z,74.93
2023-04-01T20:51:17.451Z,75.61
2023-04-01T20:53:52.072Z,75.83
2023-04-01T20:56:42.511Z,75.77
2023-04-01T20:59:24.845Z,75.80
2023-04-01T21:02:00.742Z,75.78
2023-04-01T21:04:39.896Z,76.20
2023-04-01T21:07:17.954Z,76.02
2023-04-01T21:10:12.008Z,76.06
2023-04-01T21:12:50.011Z,75.90
2023-04-01T21:15:32.629Z,76.39
2023-04-01T21:18:12.064Z,76.59
2023-04-01T21:21:07.508Z,76.55
2023-04-01T21:23:49.463Z,76.49
2023-04-01T21:26:36.579Z,76.83
2023-04-01T21:29:36.888Z,76.99
2023-04-01T21:32:36.633Z,76.53
2023-04-01T21:35:16.527Z,76.28
2023-04-01T21:38:14.608Z,76.71
2023-04-01T21:41:13.954Z,76.99
2023-04-01T21:44:12.824Z,77.35
2023-04-01T21:47:03.470Z,77.41
2023-04-01T21:49:51.903Z,77.64
2023-04-01T21:52:45.105Z,77.70
2023-04-01T21:56:06.572Z,77.81
2023-04-01T21:59:10.061Z,77.49
2023-04-01T22:02:09.186Z,77.46
2023-04-01T22:04:59.641Z,77.49
2023-04-01T22:07:36.331Z,77.73
2023-04-01T22:10:12.596Z,77.85
2023-04-01T22:12:45.455Z,78.24
2023-04-01T22:15:21.146Z,78.09
2023-04-01T22:17:55.893Z,78.46
2023-04-01T22:20:32.132Z,78.37
2023-04-01T22:23:22.974Z,78.38
2023-04-01T22:25:58.976Z,77.96
2023-04-01T22:28:34.230Z,77.94
2023-04-01T22:31:03.585Z,77.21
2023-04-01T22:33:38.673Z,77.11
2023-04-01T22:36:20.298Z,77.05
2023-04-01T22:39:04.272Z,77.48
2023-04-01T22:41:49.198Z,77.27
2023-04-01T22:44:29.630Z,77.40
2023-04-01T22:47:07.725Z,77.37
2023-04-01T22:49:41.279Z,78.24
2023-04-01T22:52:19.014Z,77.44
2023-04-01T22:54:50.801Z,77.25
2023-04-01T22:57:37.882Z,77.42
2023-04-01T23:00:11.546Z,76.98
2023-04-01T23:02:43.308Z,76.97
2023-04-01T23:05:17.986Z,76.71
2023-04-01T23:07:53.973Z,77.13
2023-04-01T23:10:27.218Z,77.33
2023-04-01T23:12:58.949Z,77.66
2023-04-01T23:15:28.833Z,78.05
2023-04-01T23:18:07.918Z,78.18
2023-04-01T23:20:57.992Z,77.46
2023-04-01T23:23:37.512Z,78.27
2023-04-01T23:26:12.525Z,78.55
2023-04-01T23:28:50.528Z,80.26
2023-04-01T23:31:29.420Z,82.04
2023-04-01T23:33:58.250Z,82.36
2023-04-01T23:36:28.005Z,83.73
2023-04-01T23:38:56.174Z,83.19
2023-04-01T23:41:27.334Z,83.95
2023-04-01T23:43:58.644Z,84.22
2023-04-01T23:46:27.439Z,84.87
2023-04-01T23:48:55.772Z,84.88
2023-04-01T23:51:26.725Z,84.51
2023-04-01T23:54:04.258Z,84.47
2023-04-01T23:56:40.969Z,84.24
2023-04-01T23:59:17.713Z,84.17
